Time;durP1;ratioP1;P1;durP2;ratioP2;P2;SDS_P1;SDS_P2;PMS_P1;PMS_P2;Temp;Humidity;BMP_temperature;BMP_pressure;BME280_temperature;BME280_humidity;BME280_pressure;Samples;Min_cycle;Max_cycle;Signal;HPM_P1;HPM_P2
2021/03/12 00:00:41;;;;;;;8.35;2.65;;;;;;;6.30;85.88;99063.38;5039993;28;20014;-79
2021/03/12 00:03:17;;;;;;;9.10;2.60;;;;;;;6.27;85.80;99076.66;5031401;28;20042;-82
2021/03/12 00:05:53;;;;;;;6.00;2.50;;;;;;;6.37;85.79;99077.72;5051448;28;20124;-83
2021/03/12 00:08:29;;;;;;;8.60;3.10;;;;;;;6.40;85.40;99079.31;5038431;28;20756;-81
2021/03/12 00:10:57;;;;;;;5.63;2.35;;;;;;;6.38;85.75;99082.00;5014204;28;20056;-80
2021/03/12 00:13:25;;;;;;;6.85;2.28;;;;;;;6.45;85.46;99085.06;5021890;28;20163;-82
2021/03/12 00:15:53;;;;;;;7.40;1.98;;;;;;;6.44;85.50;99099.06;5043755;28;20080;-80
2021/03/12 00:18:26;;;;;;;10.27;2.50;;;;;;;6.44;85.66;99099.91;5013725;28;20084;-80
2021/03/12 00:20:53;;;;;;;3.58;2.00;;;;;;;6.56;85.72;99111.31;5047734;28;20026;-80
2021/03/12 00:23:19;;;;;;;7.30;2.40;;;;;;;6.48;85.51;99116.22;5034939;28;20313;-81
2021/03/12 00:25:47;;;;;;;7.03;2.20;;;;;;;6.55;85.85;99107.88;5036135;28;20060;-80
2021/03/12 00:28:16;;;;;;;5.78;2.22;;;;;;;6.58;85.11;99109.44;5012002;28;21984;-83
2021/03/12 00:30:44;;;;;;;4.88;2.08;;;;;;;6.57;85.16;99112.97;5019547;28;20511;-83
2021/03/12 00:33:12;;;;;;;6.07;2.38;;;;;;;6.49;84.51;99104.84;5017077;28;20040;-81
2021/03/12 00:35:41;;;;;;;8.35;2.20;;;;;;;6.37;85.25;99110.88;5036121;28;20068;-82
2021/03/12 00:38:09;;;;;;;8.95;2.92;;;;;;;6.27;85.73;99118.47;4998713;28;20046;-80
2021/03/12 00:40:42;;;;;;;4.93;2.30;;;;;;;6.27;85.76;99132.38;5038380;28;20049;-80
2021/03/12 00:43:09;;;;;;;7.18;2.40;;;;;;;6.29;86.09;99127.88;5041730;28;20056;-81
2021/03/12 00:45:37;;;;;;;6.45;2.05;;;;;;;6.36;86.18;99133.56;5025962;28;20073;-80
2021/03/12 00:48:04;;;;;;;4.18;1.90;;;;;;;6.45;85.45;99134.72;5049950;28;20061;-81
2021/03/12 00:50:33;;;;;;;5.53;1.85;;;;;;;6.47;85.41;99138.06;5027186;28;20054;-81
2021/03/12 00:53:01;;;;;;;5.90;2.00;;;;;;;6.45;85.47;99134.72;5042806;28;20063;-80
2021/03/12 00:55:28;;;;;;;8.70;2.35;;;;;;;6.47;84.68;99141.53;5013271;28;20132;-83
2021/03/12 00:57:55;;;;;;;10.35;2.00;;;;;;;6.39;84.85;99141.19;5037552;28;20029;-83
2021/03/12 01:00:23;;;;;;;6.18;2.08;;;;;;;6.38;84.93;99134.28;5040439;28;20109;-81
2021/03/12 01:02:50;;;;;;;8.57;2.10;;;;;;;6.44;84.69;99144.34;5038630;28;20064;-80
2021/03/12 01:05:18;;;;;;;4.28;2.10;;;;;;;6.39;84.69;99145.56;5045300;28;20101;-79
2021/03/12 01:07:45;;;;;;;6.20;1.95;;;;;;;6.30;85.00;99140.03;5059251;28;20045;-81
2021/03/12 01:10:15;;;;;;;5.13;2.00;;;;;;;6.23;85.82;99140.53;5025105;28;20080;-83
2021/03/12 01:12:42;;;;;;;4.97;1.83;;;;;;;6.26;85.21;99141.16;5021309;28;20100;-80
2021/03/12 01:15:12;;;;;;;6.38;2.15;;;;;;;6.18;84.94;99140.81;5039842;28;20052;-81
2021/03/12 01:17:39;;;;;;;4.32;1.38;;;;;;;6.27;84.85;99137.59;5021560;28;20133;-82
2021/03/12 01:20:11;;;;;;;5.68;2.45;;;;;;;6.14;85.58;99138.50;5004596;28;20057;-82
2021/03/12 01:22:47;;;;;;;11.23;2.55;;;;;;;6.18;85.42;99132.13;5053434;28;20057;-80
2021/03/12 01:25:17;;;;;;;6.35;2.05;;;;;;;6.17;85.24;99131.31;5041189;28;20041;-80
2021/03/12 01:27:44;;;;;;;5.30;2.08;;;;;;;6.20;84.99;99132.88;5058560;28;20072;-82
2021/03/12 01:30:18;;;;;;;4.88;1.73;;;;;;;6.17;84.67;99143.50;5049090;28;20041;-80
2021/03/12 01:32:44;;;;;;;6.30;2.20;;;;;;;6.02;84.84;99138.34;5045575;28;20065;-79
2021/03/12 01:35:14;;;;;;;6.72;2.13;;;;;;;5.82;85.68;99142.19;5051210;28;20060;-80
2021/03/12 01:37:41;;;;;;;7.45;1.75;;;;;;;5.79;86.36;99141.53;5056733;28;20269;-80
2021/03/12 01:40:11;;;;;;;7.07;1.90;;;;;;;5.77;86.80;99146.03;5036534;28;20104;-82
2021/03/12 01:42:50;;;;;;;5.43;1.70;;;;;;;5.66;86.90;99154.50;5041278;28;20034;-81
2021/03/12 01:45:25;;;;;;;4.50;1.95;;;;;;;5.70;86.64;99155.16;5032344;28;20033;-80
2021/03/12 01:47:53;;;;;;;3.22;1.58;;;;;;;5.79;86.66;99162.44;5019938;28;20061;-79
2021/03/12 01:50:20;;;;;;;2.97;1.42;;;;;;;5.87;86.24;99154.97;5038447;28;20061;-80
2021/03/12 01:52:47;;;;;;;3.35;1.83;;;;;;;5.81;86.05;99156.19;5034053;28;20049;-79
2021/03/12 01:55:19;;;;;;;6.53;2.17;;;;;;;5.82;86.45;99157.84;5006584;28;20081;-84
2021/03/12 01:57:48;;;;;;;3.95;1.48;;;;;;;5.94;86.71;99163.25;5021945;28;20045;-83
2021/03/12 02:00:15;;;;;;;6.60;1.80;;;;;;;5.98;86.35;99165.59;5034193;28;20045;-82
2021/03/12 02:02:42;;;;;;;7.50;1.98;;;;;;;5.96;86.87;99179.69;5021558;28;20061;-82
2021/03/12 02:05:09;;;;;;;7.50;2.20;;;;;;;5.84;88.09;99178.66;5039998;28;20037;-82
2021/03/12 02:07:37;;;;;;;5.63;2.17;;;;;;;5.64;89.92;99172.06;5024429;28;20037;-79
2021/03/12 02:10:06;;;;;;;9.25;2.50;;;;;;;5.70;89.87;99192.56;5035801;28;20242;-81
2021/03/12 02:12:45;;;;;;;5.47;1.90;;;;;;;5.60;90.80;99191.47;5034976;28;20037;-81
2021/03/12 02:15:19;;;;;;;5.70;2.28;;;;;;;5.44;90.93;99194.16;5035067;28;20051;-80
2021/03/12 02:17:54;;;;;;;2.92;1.70;;;;;;;5.47;90.78;99195.75;4997492;28;20049;-82
2021/03/12 02:20:39;;;;;;;4.20;1.95;;;;;;;5.46;90.33;99188.84;5047590;28;20069;-81
2021/03/12 02:23:12;;;;;;;3.13;1.85;;;;;;;5.52;90.52;99181.47;5029565;28;20040;-82
2021/03/12 02:25:43;;;;;;;5.82;2.03;;;;;;;5.33;91.23;99173.09;5014798;28;20041;-79
2021/03/12 02:28:10;;;;;;;7.80;2.15;;;;;;;5.31;92.07;99181.03;5030555;28;20053;-83
2021/03/12 02:30:37;;;;;;;4.22;1.85;;;;;;;5.33;91.72;99192.19;5048534;28;20105;-81
2021/03/12 02:36:56;;;;;;;6.78;2.53;;;;;;;5.23;92.33;99185.03;5025245;28;20095;-81
2021/03/12 02:39:26;;;;;;;5.63;1.90;;;;;;;5.16;92.94;99183.69;5018155;28;20049;-83
2021/03/12 02:41:55;;;;;;;5.10;2.38;;;;;;;5.03;93.42;99189.63;5048838;28;20057;-80
2021/03/12 02:44:26;;;;;;;5.70;2.03;;;;;;;4.99;94.05;99195.13;5018310;28;20116;-82
2021/03/12 02:46:58;;;;;;;10.25;2.28;;;;;;;5.03;94.19;99189.63;5021847;28;20053;-79
2021/03/12 02:49:25;;;;;;;4.25;2.28;;;;;;;4.89;94.08;99201.81;5026091;28;20048;-81
2021/03/12 02:51:54;;;;;;;5.25;2.28;;;;;;;4.86;94.10;99204.59;5006158;28;20128;-82
2021/03/12 02:54:21;;;;;;;5.35;2.13;;;;;;;4.77;94.68;99195.53;5023498;28;20053;-80
2021/03/12 02:56:49;;;;;;;5.68;2.30;;;;;;;4.79;93.85;99201.50;5009589;28;20060;-78
2021/03/12 02:59:17;;;;;;;6.57;2.33;;;;;;;4.83;94.20;99203.84;5049103;28;20107;-80
2021/03/12 03:01:46;;;;;;;5.35;2.42;;;;;;;4.77;93.39;99205.97;5025325;28;20073;-80
2021/03/12 03:04:14;;;;;;;5.45;2.00;;;;;;;4.73;93.78;99207.09;5050170;28;20065;-80
2021/03/12 03:06:41;;;;;;;7.03;1.85;;;;;;;4.77;93.69;99224.22;5031140;28;20050;-79
2021/03/12 03:09:09;;;;;;;8.65;2.80;;;;;;;4.75;93.77;99226.06;5032491;28;20057;-79
2021/03/12 03:11:37;;;;;;;4.28;2.30;;;;;;;4.70;93.17;99223.75;5029745;28;20037;-80
2021/03/12 03:14:04;;;;;;;5.55;2.13;;;;;;;4.68;93.07;99229.94;5023614;28;20048;-78
2021/03/12 03:16:35;;;;;;;6.00;1.80;;;;;;;4.60;93.48;99233.00;5057083;28;20049;-79
2021/03/12 03:19:04;;;;;;;4.07;1.92;;;;;;;4.57;94.51;99236.63;5023700;28;20115;-79
2021/03/12 03:21:31;;;;;;;3.38;1.50;;;;;;;4.64;93.19;99241.47;5022319;28;20113;-81
2021/03/12 03:23:58;;;;;;;3.67;1.63;;;;;;;4.55;93.03;99243.69;5029512;28;20053;-82
2021/03/12 03:26:25;;;;;;;4.15;1.58;;;;;;;4.52;92.52;99254.28;4999114;28;20049;-81
2021/03/12 03:28:53;;;;;;;3.53;1.63;;;;;;;4.53;93.20;99252.53;5040341;28;20145;-80
2021/03/12 03:31:21;;;;;;;3.63;1.50;;;;;;;4.49;92.72;99253.63;5039651;28;20077;-79
2021/03/12 03:33:47;;;;;;;5.25;1.30;;;;;;;4.46;92.48;99270.28;5044898;28;20057;-81
2021/03/12 03:36:15;;;;;;;4.28;1.85;;;;;;;4.58;92.55;99264.34;5048218;28;20079;-79
2021/03/12 03:38:42;;;;;;;7.63;1.30;;;;;;;4.62;91.49;99266.81;5030514;28;20033;-80
2021/03/12 03:41:11;;;;;;;4.57;1.42;;;;;;;4.57;91.40;99267.91;5041023;28;20045;-78
2021/03/12 03:43:41;;;;;;;5.78;1.38;;;;;;;4.64;91.12;99270.16;5041720;28;20100;-78
2021/03/12 03:46:08;;;;;;;4.97;1.00;;;;;;;4.54;91.05;99275.03;5046717;28;20064;-81
2021/03/12 03:48:36;;;;;;;4.22;1.10;;;;;;;4.57;90.45;99267.91;5021266;28;20100;-80
2021/03/12 03:51:08;;;;;;;6.80;1.23;;;;;;;4.62;90.13;99275.47;5050090;28;20056;-77
2021/03/12 03:53:35;;;;;;;3.05;1.10;;;;;;;4.62;89.77;99266.81;5024863;28;20065;-80
2021/03/12 03:56:03;;;;;;;2.33;0.90;;;;;;;4.60;90.40;99279.94;5009147;28;20049;-81
2021/03/12 03:58:31;;;;;;;1.63;0.75;;;;;;;4.70;89.40;99286.31;5015574;28;20158;-82
2021/03/12 04:00:58;;;;;;;7.32;1.65;;;;;;;4.64;89.88;99277.97;5020262;28;20045;-81
2021/03/12 04:03:26;;;;;;;4.53;1.00;;;;;;;4.58;89.64;99290.41;5033204;28;20049;-82
2021/03/12 04:05:57;;;;;;;2.17;1.05;;;;;;;4.56;90.36;99288.84;5041270;28;20048;-81
2021/03/12 04:08:24;;;;;;;3.53;1.13;;;;;;;4.68;89.68;99288.13;5031769;28;20084;-82
2021/03/12 04:10:52;;;;;;;2.90;0.90;;;;;;;4.67;89.98;99285.63;5005225;28;20073;-82
2021/03/12 04:13:19;;;;;;;3.50;1.23;;;;;;;4.68;89.83;99287.31;5000239;28;20088;-80
2021/03/12 04:15:45;;;;;;;4.70;1.10;;;;;;;4.71;89.30;99298.41;5003760;28;20057;-82
2021/03/12 04:18:13;;;;;;;3.88;1.20;;;;;;;4.78;89.81;99309.34;5035148;28;20085;-82
2021/03/12 04:20:42;;;;;;;4.80;1.10;;;;;;;4.83;89.06;99322.97;5017619;28;20420;-79
2021/03/12 04:23:08;;;;;;;5.13;1.20;;;;;;;4.70;88.78;99314.13;5019196;28;20057;-82
2021/03/12 04:25:36;;;;;;;6.00;1.20;;;;;;;4.76;88.82;99316.38;5002715;28;20527;-82
2021/03/12 04:28:04;;;;;;;3.88;1.20;;;;;;;4.75;88.33;99323.38;5026414;28;20047;-80
2021/03/12 04:30:30;;;;;;;7.38;1.15;;;;;;;4.61;89.52;99330.28;5030831;28;20042;-80
2021/03/12 04:32:58;;;;;;;5.55;1.63;;;;;;;4.62;89.45;99337.19;5039952;28;20098;-80
2021/03/12 04:35:25;;;;;;;3.20;1.13;;;;;;;4.45;89.91;99340.69;5014437;28;20097;-80
2021/03/12 04:37:52;;;;;;;6.75;1.30;;;;;;;4.57;90.13;99347.84;5024723;28;20053;-79
2021/03/12 04:40:20;;;;;;;6.82;1.35;;;;;;;4.60;89.74;99349.47;5030941;28;20049;-81
2021/03/12 04:42:47;;;;;;;7.57;1.25;;;;;;;4.54;90.16;99355.84;5036800;28;20136;-82
2021/03/12 04:45:14;;;;;;;3.15;1.20;;;;;;;4.49;90.01;99358.69;4987205;28;20065;-81
2021/03/12 04:47:41;;;;;;;6.45;1.40;;;;;;;4.51;90.25;99358.63;5000667;28;20076;-81
2021/03/12 04:50:09;;;;;;;4.28;1.08;;;;;;;4.52;90.00;99361.13;5039787;28;20580;-82
2021/03/12 04:52:38;;;;;;;5.50;1.30;;;;;;;4.57;90.83;99364.34;5001809;28;20178;-83
2021/03/12 04:55:07;;;;;;;3.38;1.10;;;;;;;4.51;90.46;99371.66;5040781;28;20050;-81
2021/03/12 04:57:37;;;;;;;10.50;1.55;;;;;;;4.53;91.01;99373.25;5047286;28;20117;-78
2021/03/12 05:00:06;;;;;;;5.57;1.60;;;;;;;4.63;90.97;99378.78;5064559;28;20041;-80
2021/03/12 05:02:34;;;;;;;4.63;1.45;;;;;;;4.66;90.96;99389.06;5053902;28;20053;-81
2021/03/12 05:05:04;;;;;;;6.65;1.73;;;;;;;4.69;90.39;99393.28;5037126;28;20412;-80
2021/03/12 05:07:32;;;;;;;7.13;1.40;;;;;;;4.75;90.30;99390.31;5039160;28;20029;-79
2021/03/12 05:10:01;;;;;;;3.10;1.48;;;;;;;4.73;90.51;99387.81;5041761;28;20085;-78
2021/03/12 05:12:29;;;;;;;5.80;1.55;;;;;;;4.57;90.85;99387.78;5049409;28;20057;-79
2021/03/12 05:14:56;;;;;;;4.75;1.63;;;;;;;4.62;91.52;99397.97;5056286;28;20033;-80
2021/03/12 05:17:23;;;;;;;5.82;2.10;;;;;;;4.56;91.43;99395.69;5054943;28;20066;-79
2021/03/12 05:19:50;;;;;;;9.20;1.95;;;;;;;4.56;91.57;99395.69;5052391;28;20037;-80
2021/03/12 05:22:17;;;;;;;6.28;2.03;;;;;;;4.61;91.01;99398.06;5058427;28;20065;-78
2021/03/12 05:24:44;;;;;;;8.80;2.58;;;;;;;4.71;91.05;99413.09;5032963;28;20120;-80
2021/03/12 05:27:11;;;;;;;3.92;1.83;;;;;;;4.54;91.13;99421.00;5053154;28;20065;-81
2021/03/12 05:29:39;;;;;;;4.63;1.80;;;;;;;4.59;93.32;99411.16;5042009;28;20118;-81
2021/03/12 05:32:06;;;;;;;5.68;2.15;;;;;;;4.62;93.66;99413.59;5045348;28;20078;-80
2021/03/12 05:34:33;;;;;;;5.18;2.70;;;;;;;4.51;94.52;99426.38;5050547;28;20050;-82
2021/03/12 05:37:00;;;;;;;7.63;2.78;;;;;;;4.45;95.26;99440.56;5021166;28;20026;-80
2021/03/12 05:39:27;;;;;;;6.55;2.00;;;;;;;4.41;95.88;99431.22;5067080;28;20057;-82
2021/03/12 05:41:54;;;;;;;13.25;3.67;;;;;;;4.37;96.80;99434.06;5049371;28;20114;-78
2021/03/12 05:44:21;;;;;;;8.65;3.42;;;;;;;4.24;98.69;99433.88;5019358;28;20041;-79
2021/03/12 05:46:48;;;;;;;5.35;3.30;;;;;;;4.16;99.07;99443.84;5055395;28;20093;-78
2021/03/12 05:49:15;;;;;;;10.13;3.58;;;;;;;4.12;99.44;99447.53;5055479;28;20059;-81
2021/03/12 05:51:42;;;;;;;9.25;4.03;;;;;;;4.14;98.59;99450.88;5013429;28;20046;-81
2021/03/12 05:54:09;;;;;;;9.38;4.03;;;;;;;4.19;99.13;99454.13;5027383;28;20128;-81
2021/03/12 05:56:36;;;;;;;8.73;3.65;;;;;;;4.13;99.09;99447.44;5045794;28;20084;-81
2021/03/12 05:59:03;;;;;;;10.40;4.55;;;;;;;4.10;99.25;99459.78;5012526;28;20055;-81
2021/03/12 06:01:36;;;;;;;10.38;3.60;;;;;;;4.10;99.42;99470.19;5011853;28;20054;-79
2021/03/12 06:04:06;;;;;;;7.63;3.97;;;;;;;4.07;99.03;99464.22;5072331;22;20053;-71
2021/03/12 06:06:37;;;;;;;14.85;4.00;;;;;;;4.12;98.70;99481.38;5033230;28;20137;-72
2021/03/12 06:09:05;;;;;;;14.40;4.10;;;;;;;4.16;99.22;99472.50;5026678;28;20053;-72
2021/03/12 06:11:32;;;;;;;6.63;3.05;;;;;;;4.13;98.60;99483.06;5014382;28;20053;-72
2021/03/12 06:13:59;;;;;;;6.43;3.30;;;;;;;4.10;97.91;99497.09;5004131;28;20172;-72
2021/03/12 06:16:28;;;;;;;7.68;3.45;;;;;;;4.18;97.86;99499.31;5002110;28;20073;-73
2021/03/12 06:19:18;;;;;;;6.65;3.20;;;;;;;4.19;97.15;99514.88;5007675;28;20034;-71
2021/03/12 06:21:47;;;;;;;11.48;3.47;;;;;;;4.23;96.99;99503.38;5003771;28;20064;-72
2021/03/12 06:24:40;;;;;;;9.57;3.70;;;;;;;4.19;96.90;99517.47;5003403;28;20048;-72
2021/03/12 06:27:07;;;;;;;10.73;3.45;;;;;;;4.35;97.08;99525.34;5009189;28;20499;-71
2021/03/12 06:29:35;;;;;;;17.52;4.05;;;;;;;4.46;95.50;99532.63;5003383;28;20057;-72
2021/03/12 06:32:03;;;;;;;11.75;4.22;;;;;;;4.26;96.54;99539.69;5019632;28;20053;-70
2021/03/12 06:34:31;;;;;;;10.68;4.75;;;;;;;4.35;97.27;99540.13;4997811;28;20054;-71
2021/03/12 06:36:59;;;;;;;13.65;4.15;;;;;;;4.32;97.07;99542.00;5021852;28;20042;-70
2021/03/12 06:39:36;;;;;;;19.17;6.93;;;;;;;4.40;96.29;99546.78;5030816;28;20050;-69
2021/03/12 06:42:09;;;;;;;10.40;3.92;;;;;;;4.38;96.91;99546.03;5037291;28;20045;-71
2021/03/12 06:44:37;;;;;;;10.32;4.13;;;;;;;4.27;96.90;99563.97;5008280;28;20053;-70
2021/03/12 06:47:05;;;;;;;9.10;4.72;;;;;;;4.20;97.67;99578.22;5032400;28;20094;-72
2021/03/12 06:49:33;;;;;;;11.32;5.25;;;;;;;4.15;97.54;99577.63;5013587;28;20394;-69
2021/03/12 06:52:04;;;;;;;16.70;6.32;;;;;;;4.15;98.21;99580.22;5018096;28;20045;-70
2021/03/12 06:54:32;;;;;;;12.15;5.30;;;;;;;4.18;98.90;99580.88;5001926;28;20049;-71
2021/03/12 06:56:59;;;;;;;13.30;5.40;;;;;;;4.14;99.19;99579.34;5013212;28;20077;-70
2021/03/12 06:59:32;;;;;;;13.02;6.25;;;;;;;4.16;99.54;99589.72;5015846;28;20056;-73
2021/03/12 07:01:59;;;;;;;18.75;6.63;;;;;;;4.17;99.94;99594.84;5005478;23;20062;-79
2021/03/12 07:04:28;;;;;;;9.27;5.68;;;;;;;4.29;99.87;99604.66;4977129;28;20042;-78
2021/03/12 07:06:55;;;;;;;11.80;5.75;;;;;;;4.46;98.22;99597.78;4962373;28;20579;-79
2021/03/12 07:09:24;;;;;;;9.02;5.95;;;;;;;4.46;97.43;99601.22;4953332;28;20480;-79
2021/03/12 07:11:55;;;;;;;13.60;5.28;;;;;;;4.54;97.00;99603.44;4965793;28;20058;-80
2021/03/12 07:14:22;;;;;;;9.15;5.13;;;;;;;4.65;96.77;99610.72;4997192;28;20133;-78
2021/03/12 07:17:00;;;;;;;9.52;5.72;;;;;;;4.70;96.36;99600.91;4972018;28;20133;-79
2021/03/12 07:19:27;;;;;;;9.10;5.13;;;;;;;4.94;95.83;99601.38;5005788;28;20050;-79
2021/03/12 07:21:57;;;;;;;8.48;5.15;;;;;;;5.10;94.57;99607.50;4992609;28;20057;-76
2021/03/12 07:24:25;;;;;;;14.82;5.40;;;;;;;4.94;93.95;99604.84;4988790;28;20054;-76
2021/03/12 07:26:59;;;;;;;8.27;4.55;;;;;;;4.98;93.18;99614.19;4983261;28;20153;-77
2021/03/12 07:29:31;;;;;;;15.30;6.03;;;;;;;5.11;93.29;99619.63;4993404;28;20065;-76
2021/03/12 07:31:59;;;;;;;10.20;5.05;;;;;;;5.32;93.23;99628.09;4988785;28;20042;-77
2021/03/12 07:34:33;;;;;;;9.30;5.03;;;;;;;5.33;91.70;99630.59;4977307;28;20446;-79
2021/03/12 07:37:02;;;;;;;9.98;5.32;;;;;;;5.72;90.54;99626.78;4965491;28;20073;-76
2021/03/12 07:39:34;;;;;;;12.18;5.20;;;;;;;5.55;90.19;99639.91;4959258;28;20046;-78
2021/03/12 07:42:01;;;;;;;10.05;5.47;;;;;;;5.63;90.07;99632.50;4952597;28;20144;-75
2021/03/12 07:44:46;;;;;;;10.32;5.10;;;;;;;5.38;89.88;99642.56;4974287;28;20056;-78
2021/03/12 07:47:21;;;;;;;10.02;5.47;;;;;;;5.58;89.40;99645.81;4959405;28;20092;-76
2021/03/12 07:49:48;;;;;;;11.38;5.53;;;;;;;5.40;90.21;99645.94;4961218;28;20129;-74
2021/03/12 07:52:15;;;;;;;9.20;4.40;;;;;;;5.39;90.09;99641.63;4982863;28;20150;-77
2021/03/12 07:54:45;;;;;;;9.55;4.90;;;;;;;5.56;88.90;99655.47;4984700;28;20557;-74
2021/03/12 07:57:15;;;;;;;12.00;4.90;;;;;;;5.40;88.85;99666.81;4983504;28;20185;-76
2021/03/12 07:59:48;;;;;;;9.70;4.70;;;;;;;5.49;89.59;99666.31;4981798;28;20066;-81
2021/03/12 08:02:19;;;;;;;10.90;5.32;;;;;;;5.29;89.39;99678.66;4991230;28;20169;-80
2021/03/12 08:04:47;;;;;;;7.70;4.28;;;;;;;5.18;90.43;99677.53;4959211;28;20568;-76
2021/03/12 08:07:21;;;;;;;10.15;4.95;;;;;;;5.28;91.13;99674.38;4982651;28;20062;-75
2021/03/12 08:09:50;;;;;;;9.48;5.05;;;;;;;5.40;89.50;99693.75;4981199;28;20030;-78
2021/03/12 08:12:34;;;;;;;12.18;5.20;;;;;;;5.44;89.12;99684.84;4927411;28;20082;-76
2021/03/12 08:15:10;;;;;;;9.23;4.70;;;;;;;5.30;88.82;99695.16;4979163;28;20046;-77
2021/03/12 08:17:47;;;;;;;10.82;4.80;;;;;;;5.50;88.41;99696.75;4979751;28;20056;-77
2021/03/12 08:20:23;;;;;;;9.27;4.75;;;;;;;5.58;87.87;99694.53;4963430;28;20816;-78
2021/03/12 08:22:50;;;;;;;;;;;;;;;5.61;86.57;99701.38;4978737;28;20418;-76
2021/03/12 08:25:32;;;;;;;13.52;4.18;;;;;;;5.90;86.22;99698.06;4963123;28;19949;-78
2021/03/12 08:27:59;;;;;;;10.57;4.50;;;;;;;5.89;85.28;99698.97;4979846;28;20058;-79
2021/03/12 08:30:26;;;;;;;11.70;4.22;;;;;;;6.11;84.32;99708.28;4964014;28;20398;-78
2021/03/12 08:32:58;;;;;;;12.20;4.68;;;;;;;6.33;82.94;99704.38;4984062;28;20054;-80
2021/03/12 08:35:39;;;;;;;6.22;3.38;;;;;;;6.13;82.65;99709.91;4989767;28;20062;-73
2021/03/12 08:38:30;;;;;;;9.40;3.92;;;;;;;6.29;82.83;99715.94;4960812;28;20426;-74
2021/03/12 08:41:12;;;;;;;9.48;5.05;;;;;;;5.87;83.56;99718.28;4979504;28;20481;-74
2021/03/12 08:43:42;;;;;;;11.98;4.30;;;;;;;6.12;82.29;99715.19;4978600;28;20057;-74
2021/03/12 08:46:23;;;;;;;8.32;4.22;;;;;;;6.20;81.25;99724.28;4983418;28;20065;-77
2021/03/12 08:48:52;;;;;;;9.00;4.25;;;;;;;6.00;81.46;99720.16;4963274;28;20051;-77
2021/03/12 08:51:22;;;;;;;13.50;6.50;;;;;;;6.43;82.25;99719.56;4976420;28;20077;-76
2021/03/12 08:53:56;;;;;;;7.60;4.03;;;;;;;6.02;81.19;99728.75;4955710;28;20058;-76
2021/03/12 08:56:30;;;;;;;12.30;4.70;;;;;;;6.18;82.07;99726.16;4963423;28;20138;-75
2021/03/12 08:58:58;;;;;;;15.15;5.03;;;;;;;5.79;82.60;99726.50;4960495;28;20042;-74
2021/03/12 09:01:27;;;;;;;9.98;4.53;;;;;;;5.91;83.13;99731.09;4960776;28;20066;-72
2021/03/12 09:03:57;;;;;;;7.30;4.57;;;;;;;5.99;81.73;99734.16;4978127;28;20054;-73
2021/03/12 09:06:26;;;;;;;8.30;4.70;;;;;;;6.19;80.41;99734.84;4980090;28;20167;-73
2021/03/12 09:09:11;;;;;;;8.50;4.15;;;;;;;6.17;80.32;99737.53;4964857;28;20061;-75
2021/03/12 09:11:38;;;;;;;9.73;4.25;;;;;;;6.43;80.71;99745.69;4963502;28;20050;-75
2021/03/12 09:14:05;;;;;;;12.25;3.92;;;;;;;6.52;79.31;99732.09;4962535;28;20058;-75
2021/03/12 09:16:37;;;;;;;13.05;4.60;;;;;;;6.72;79.11;99734.44;4964437;28;20715;-76
2021/03/12 09:19:11;;;;;;;9.10;3.60;;;;;;;7.07;78.07;99726.34;4966500;28;20841;-74
2021/03/12 09:21:38;;;;;;;13.32;4.03;;;;;;;7.15;77.61;99731.09;4964150;28;20112;-74
2021/03/12 09:24:05;;;;;;;19.05;5.78;;;;;;;7.20;77.71;99729.88;4980309;28;20050;-72
2021/03/12 09:26:35;;;;;;;11.93;4.05;;;;;;;6.82;77.63;99742.59;4963252;28;20061;-71
2021/03/12 09:29:04;;;;;;;8.80;4.18;;;;;;;6.71;78.23;99744.97;4982104;28;20054;-74
2021/03/12 09:31:37;;;;;;;10.52;4.00;;;;;;;6.88;75.63;99747.47;4963404;28;20057;-73
2021/03/12 09:34:07;;;;;;;5.88;4.30;;;;;;;7.81;73.64;99748.94;4979409;28;20065;-75
2021/03/12 09:36:37;;;;;;;8.48;3.97;;;;;;;8.11;72.50;99749.66;4980975;28;20592;-74
2021/03/12 09:39:22;;;;;;;6.78;3.72;;;;;;;8.08;71.07;99752.47;4980227;28;20055;-77
2021/03/12 09:41:56;;;;;;;10.10;4.20;;;;;;;8.27;69.63;99751.31;4982216;28;20093;-73
2021/03/12 09:44:24;;;;;;;6.03;3.65;;;;;;;8.06;70.43;99753.47;4963387;28;20060;-73
2021/03/12 09:46:53;;;;;;;8.88;4.15;;;;;;;8.57;68.90;99746.75;4964688;28;20058;-73
2021/03/12 09:49:42;;;;;;;4.70;3.47;;;;;;;8.65;67.49;99754.13;4984658;28;20046;-75
2021/03/12 09:52:14;;;;;;;10.27;4.13;;;;;;;8.35;67.37;99759.53;4970657;28;20149;-74
2021/03/12 09:54:42;;;;;;;10.27;3.33;;;;;;;8.59;66.95;99760.59;4973931;28;20122;-75
2021/03/12 09:57:10;;;;;;;7.03;3.22;;;;;;;8.71;67.06;99766.84;4970296;28;20077;-77
2021/03/12 09:59:38;;;;;;;9.05;3.70;;;;;;;8.76;66.69;99762.13;4997532;28;20201;-73
2021/03/12 10:02:21;;;;;;;10.65;3.33;;;;;;;8.33;65.78;99764.00;4970392;28;20050;-80
2021/03/12 10:04:57;;;;;;;15.90;3.28;;;;;;;8.12;68.12;99756.56;4994660;28;20137;-79
2021/03/12 10:07:44;;;;;;;8.05;3.20;;;;;;;8.28;67.54;99750.34;4965175;28;20129;-80
2021/03/12 10:10:27;;;;;;;6.85;3.40;;;;;;;8.52;67.41;99776.84;4957437;28;20058;-80
2021/03/12 10:13:00;;;;;;;10.07;3.65;;;;;;;8.28;65.20;99766.09;4951848;28;20288;-79
2021/03/12 10:15:35;;;;;;;18.98;4.53;;;;;;;8.37;65.11;99768.16;4998325;28;20050;-79
2021/03/12 10:18:03;;;;;;;17.58;2.90;;;;;;;8.31;63.54;99761.50;4952399;28;20053;-78
2021/03/12 10:20:36;;;;;;;12.32;2.60;;;;;;;7.90;64.53;99766.72;4956385;28;20522;-80
2021/03/12 10:23:06;;;;;;;9.38;2.72;;;;;;;7.59;65.49;99780.81;4941443;28;20138;-74
2021/03/12 10:25:39;;;;;;;9.70;3.25;;;;;;;7.65;65.82;99775.19;4965209;28;20066;-74
2021/03/12 10:28:12;;;;;;;10.82;2.47;;;;;;;8.05;65.44;99778.00;4962956;28;20050;-75
2021/03/12 10:30:43;;;;;;;21.05;3.20;;;;;;;8.07;64.29;99784.03;4966181;28;20062;-73
2021/03/12 10:33:13;;;;;;;17.63;2.70;;;;;;;8.30;64.08;99779.97;4956879;28;20066;-72
2021/03/12 10:35:43;;;;;;;13.68;2.90;;;;;;;8.03;65.69;99793.84;4980909;28;20070;-74
2021/03/12 10:38:23;;;;;;;10.18;2.47;;;;;;;8.31;64.58;99785.09;4944551;28;20058;-73
2021/03/12 10:40:55;;;;;;;8.82;2.47;;;;;;;8.45;63.28;99788.66;4948550;28;20088;-74
2021/03/12 10:43:25;;;;;;;31.17;5.32;;;;;;;8.94;63.70;99780.25;4976998;28;20046;-73
2021/03/12 10:45:56;;;;;;;34.70;4.00;;;;;;;9.19;60.58;99797.88;4984482;28;20120;-72
2021/03/12 10:48:27;;;;;;;13.63;3.72;;;;;;;9.30;61.02;99788.31;4953659;28;20057;-69
2021/03/12 10:51:04;;;;;;;18.73;3.28;;;;;;;9.18;62.59;99804.03;4992750;28;20038;-73
2021/03/12 10:53:43;;;;;;;31.63;4.32;;;;;;;9.46;61.03;99808.31;4962217;28;20050;-73
2021/03/12 10:56:10;;;;;;;43.75;5.07;;;;;;;9.73;60.03;99788.03;4998251;28;20179;-75
2021/03/12 10:58:38;;;;;;;16.10;3.15;;;;;;;9.64;60.28;99794.78;4961416;28;20074;-70
2021/03/12 11:01:19;;;;;;;52.95;5.95;;;;;;;8.82;60.37;99802.88;4979797;28;20058;-73
2021/03/12 11:03:47;;;;;;;18.20;4.80;;;;;;;9.32;59.22;99803.97;4973720;28;20050;-74
2021/03/12 11:06:15;;;;;;;25.55;3.10;;;;;;;9.46;58.41;99798.66;4980881;28;20062;-72
2021/03/12 11:08:42;;;;;;;11.60;2.65;;;;;;;9.17;58.75;99807.63;4978335;28;20148;-75
2021/03/12 11:11:13;;;;;;;11.32;3.28;;;;;;;9.23;58.45;99804.56;4959852;28;20070;-73
2021/03/12 11:13:41;;;;;;;9.77;2.30;;;;;;;9.21;57.58;99809.09;4972346;28;20176;-74
2021/03/12 11:16:10;;;;;;;11.68;2.80;;;;;;;9.23;56.74;99802.81;4959096;28;20058;-73
2021/03/12 11:18:37;;;;;;;14.90;2.35;;;;;;;9.04;57.82;99803.16;4960848;28;20062;-79
2021/03/12 11:21:07;;;;;;;8.02;2.50;;;;;;;8.59;57.54;99809.59;4976798;28;20054;-75
2021/03/12 11:23:34;;;;;;;12.85;2.58;;;;;;;9.25;55.85;99806.16;4954099;28;20050;-74
2021/03/12 11:26:01;;;;;;;34.17;4.00;;;;;;;9.38;55.42;99811.44;4979286;28;20074;-75
2021/03/12 11:28:28;;;;;;;15.98;2.60;;;;;;;9.06;55.31;99806.56;4975128;28;20050;-73
2021/03/12 11:30:56;;;;;;;6.45;2.25;;;;;;;8.84;56.85;99808.88;4976572;28;20054;-74
2021/03/12 11:33:24;;;;;;;12.88;2.25;;;;;;;8.88;56.08;99808.59;4954355;28;20137;-75
2021/03/12 11:35:53;;;;;;;9.30;2.10;;;;;;;9.13;55.71;99810.44;4973089;28;20063;-74
2021/03/12 11:38:29;;;;;;;8.88;2.58;;;;;;;9.01;55.65;99813.06;4968583;28;20161;-74
2021/03/12 11:40:59;;;;;;;16.88;3.00;;;;;;;8.95;55.82;99811.66;4976028;28;20054;-75
2021/03/12 11:43:26;;;;;;;14.45;2.80;;;;;;;8.85;56.03;99814.03;4943162;28;20771;-74
2021/03/12 11:45:53;;;;;;;17.95;3.05;;;;;;;8.82;55.20;99814.22;4979858;28;20046;-75
2021/03/12 11:48:22;;;;;;;15.77;2.25;;;;;;;9.02;54.90;99807.69;4975242;28;20618;-75
2021/03/12 11:50:50;;;;;;;15.82;2.80;;;;;;;9.24;54.34;99816.78;4979551;28;20137;-74
2021/03/12 11:53:17;;;;;;;8.25;2.20;;;;;;;9.48;54.43;99816.94;4977406;28;20066;-76
2021/03/12 11:55:44;;;;;;;10.65;2.90;;;;;;;8.65;56.29;99817.09;4983310;28;20154;-74